createdAt,value
2022-10-11T00:01:58.182Z,2.83
2022-10-11T00:04:26.291Z,2.78
2022-10-11T00:06:55.148Z,2.90
2022-10-11T00:09:23.259Z,4.10
2022-10-11T00:11:51.187Z,3.05
2022-10-11T00:14:19.392Z,3.53
2022-10-11T00:16:48.702Z,4.30
2022-10-11T00:19:19.812Z,3.00
2022-10-11T00:21:49.940Z,3.88
2022-10-11T00:24:18.072Z,3.22
2022-10-11T00:26:47.071Z,2.78
2022-10-11T00:29:14.976Z,3.05
2022-10-11T00:31:43.194Z,4.55
2022-10-11T00:34:12.707Z,4.35
2022-10-11T00:36:40.743Z,3.53
2022-10-11T00:39:08.661Z,4.38
2022-10-11T00:41:36.978Z,3.90
2022-10-11T00:44:23.860Z,4.30
2022-10-11T00:46:55.595Z,4.15
2022-10-11T00:49:31.267Z,3.45
2022-10-11T00:52:07.776Z,4.00
2022-10-11T00:54:37.315Z,4.47
2022-10-11T00:57:10.997Z,3.72
2022-10-11T00:59:42.203Z,4.40
2022-10-11T01:02:11.226Z,3.85
2022-10-11T01:04:39.802Z,4.88
2022-10-11T01:07:08.121Z,4.07
2022-10-11T01:09:36.765Z,3.92
2022-10-11T01:12:07.721Z,4.03
2022-10-11T01:17:09.946Z,4.97
2022-10-11T01:20:01.357Z,4.60
2022-10-11T01:22:38.526Z,4.53
2022-10-11T01:25:12.391Z,3.95
2022-10-11T01:27:59.888Z,3.80
2022-10-11T01:30:34.980Z,4.50
2022-10-11T01:33:09.242Z,3.50
2022-10-11T01:35:50.517Z,3.50
2022-10-11T01:38:18.417Z,3.80
2022-10-11T01:40:52.303Z,3.70
2022-10-11T01:43:21.405Z,3.40
2022-10-11T01:45:51.428Z,4.20
2022-10-11T01:48:19.378Z,4.03
2022-10-11T01:50:48.576Z,3.42
2022-10-11T01:53:16.130Z,2.80
2022-10-11T01:55:56.253Z,2.85
2022-10-11T01:58:38.245Z,3.27
2022-10-11T02:01:20.815Z,3.30
2022-10-11T02:03:57.623Z,2.95
2022-10-11T02:06:30.501Z,2.60
2022-10-11T02:09:04.524Z,2.78
2022-10-11T02:11:36.079Z,3.25
2022-10-11T02:14:16.386Z,3.20
2022-10-11T02:16:46.431Z,2.83
2022-10-11T02:19:17.433Z,3.30
2022-10-11T02:24:19.352Z,3.42
2022-10-11T02:26:53.234Z,3.25
2022-10-11T02:29:22.115Z,3.97
2022-10-11T02:31:51.018Z,3.92
2022-10-11T02:34:26.015Z,3.17
2022-10-11T02:36:54.055Z,3.03
2022-10-11T02:39:27.571Z,3.72
2022-10-11T02:41:58.971Z,3.10
2022-10-11T02:44:32.600Z,3.20
2022-10-11T02:47:01.220Z,4.32
2022-10-11T02:49:30.647Z,3.55
2022-10-11T02:51:58.993Z,4.03
2022-10-11T02:54:27.087Z,4.88
2022-10-11T02:56:55.145Z,3.33
2022-10-11T02:59:22.821Z,3.85
2022-10-11T03:01:50.644Z,3.47
2022-10-11T03:04:18.212Z,4.15
2022-10-11T03:06:45.912Z,3.58
2022-10-11T03:09:13.578Z,4.03
2022-10-11T03:11:41.294Z,4.40
2022-10-11T03:14:08.957Z,3.80
2022-10-11T03:16:36.601Z,3.25
2022-10-11T03:19:04.429Z,4.78
2022-10-11T03:21:32.022Z,3.20
2022-10-11T03:23:59.717Z,3.10
2022-10-11T03:26:27.277Z,5.00
2022-10-11T03:28:55.181Z,4.00
2022-10-11T03:31:23.791Z,3.05
2022-10-11T03:33:51.483Z,3.95
2022-10-11T03:36:19.441Z,4.47
2022-10-11T03:38:47.189Z,3.15
2022-10-11T03:41:17.106Z,3.30
2022-10-11T03:43:44.713Z,3.92
2022-10-11T03:46:12.323Z,3.78
2022-10-11T03:48:39.844Z,3.40
2022-10-11T03:51:07.416Z,3.85
2022-10-11T03:53:34.936Z,3.30
2022-10-11T03:56:07.343Z,3.50
2022-10-11T03:58:35.983Z,3.08
2022-10-11T04:01:03.809Z,3.47
2022-10-11T04:03:31.326Z,3.30
2022-10-11T04:05:58.819Z,3.58
2022-10-11T04:08:26.684Z,3.70
2022-10-11T04:10:54.191Z,3.55
2022-10-11T04:13:21.694Z,3.25
2022-10-11T04:15:49.229Z,3.67
2022-10-11T04:18:16.980Z,4.35
2022-10-11T04:20:44.631Z,3.55
2022-10-11T04:23:12.138Z,3.33
2022-10-11T04:25:41.284Z,4.85
2022-10-11T04:28:09.926Z,4.43
2022-10-11T04:30:37.708Z,3.65
2022-10-11T04:33:05.867Z,4.18
2022-10-11T04:35:33.466Z,4.55
2022-10-11T04:38:01.102Z,4.13
2022-10-11T04:40:28.929Z,4.18
2022-10-11T04:42:56.530Z,3.72
2022-10-11T04:45:24.171Z,4.68
2022-10-11T04:47:51.839Z,4.03
2022-10-11T04:50:19.730Z,3.50
2022-10-11T04:52:47.726Z,4.55
2022-10-11T04:55:15.283Z,4.38
2022-10-11T04:57:42.849Z,4.00
2022-10-11T05:00:10.931Z,4.53
2022-10-11T05:02:38.504Z,4.40
2022-10-11T05:05:06.695Z,5.38
2022-10-11T05:07:34.502Z,5.25
2022-10-11T05:10:02.368Z,4.80
2022-10-11T05:12:29.923Z,5.15
2022-10-11T05:14:58.336Z,5.00
2022-10-11T05:17:25.849Z,5.45
2022-10-11T05:19:53.640Z,4.82
2022-10-11T05:22:21.219Z,5.57
2022-10-11T05:24:48.902Z,4.60
2022-10-11T05:27:16.509Z,4.95
2022-10-11T05:29:44.152Z,4.72
2022-10-11T05:32:11.907Z,5.30
2022-10-11T05:34:39.537Z,5.53
2022-10-11T05:37:07.253Z,5.40
2022-10-11T05:39:34.933Z,4.72
2022-10-11T05:42:06.588Z,5.47
2022-10-11T05:44:37.333Z,4.15
2022-10-11T05:47:05.015Z,4.45
2022-10-11T05:49:32.662Z,4.15
2022-10-11T05:52:00.335Z,4.60
2022-10-11T05:54:30.200Z,4.78
2022-10-11T05:56:57.967Z,4.78
2022-10-11T05:59:25.630Z,4.72
2022-10-11T06:01:53.338Z,4.97
2022-10-11T06:04:21.015Z,4.68
2022-10-11T06:06:48.874Z,5.00
2022-10-11T06:09:16.435Z,5.95
2022-10-11T06:11:45.573Z,4.97
2022-10-11T06:14:13.204Z,5.28
2022-10-11T06:16:40.816Z,5.00
2022-10-11T06:19:08.716Z,8.90
2022-10-11T06:21:36.601Z,6.30
2022-10-11T06:24:04.527Z,5.68
2022-10-11T06:26:32.251Z,5.68
2022-10-11T06:28:59.895Z,5.72
2022-10-11T06:31:27.486Z,5.90
2022-10-11T06:33:55.083Z,6.32
2022-10-11T06:36:22.955Z,5.50
2022-10-11T06:38:54.100Z,5.28
2022-10-11T06:41:23.444Z,5.60
2022-10-11T06:43:51.411Z,6.57
2022-10-11T06:46:20.088Z,5.45
2022-10-11T06:48:48.466Z,6.18
2022-10-11T06:51:17.067Z,6.07
2022-10-11T06:53:45.125Z,6.38
2022-10-11T06:56:13.443Z,5.80
2022-10-11T06:58:41.207Z,6.45
2022-10-11T07:01:10.442Z,6.80
2022-10-11T07:03:38.591Z,6.50
2022-10-11T07:06:08.068Z,7.15
2022-10-11T07:08:36.244Z,6.97
2022-10-11T07:11:05.252Z,7.35
2022-10-11T07:13:36.317Z,6.57
2022-10-11T07:16:05.035Z,7.22
2022-10-11T07:18:33.325Z,7.32
2022-10-11T07:21:08.800Z,8.25
2022-10-11T07:23:36.469Z,7.35
2022-10-11T07:26:04.642Z,7.80
2022-10-11T07:28:32.675Z,6.95
2022-10-11T07:31:04.904Z,6.75
2022-10-11T07:33:32.716Z,6.90
2022-10-11T07:36:00.746Z,7.30
2022-10-11T07:38:28.710Z,8.45
2022-10-11T07:40:56.698Z,6.55
2022-10-11T07:43:24.510Z,6.78
2022-10-11T07:45:57.260Z,6.10
2022-10-11T07:48:27.077Z,5.57
2022-10-11T07:51:01.820Z,5.15
2022-10-11T07:53:29.814Z,5.78
2022-10-11T07:56:01.120Z,6.00
2022-10-11T07:58:28.868Z,6.00
2022-10-11T08:00:56.937Z,7.13
2022-10-11T08:03:25.349Z,8.93
2022-10-11T08:05:53.413Z,7.32
2022-10-11T08:11:05.123Z,9.57
2022-10-11T08:13:33.472Z,7.60
2022-10-11T08:16:01.315Z,10.00
2022-10-11T08:18:29.694Z,8.38
2022-10-11T08:20:57.789Z,7.10
2022-10-11T08:23:25.846Z,8.27
2022-10-11T08:25:57.762Z,7.82
2022-10-11T08:28:25.470Z,8.43
2022-10-11T08:30:54.688Z,8.80
2022-10-11T08:33:27.116Z,7.28
2022-10-11T08:35:55.716Z,6.93
2022-10-11T08:38:23.859Z,8.05
2022-10-11T08:40:53.905Z,7.60
2022-10-11T08:43:27.868Z,8.23
2022-10-11T08:45:57.342Z,8.40
2022-10-11T08:48:28.390Z,7.95
2022-10-11T08:50:59.940Z,8.80
2022-10-11T08:53:50.255Z,10.05
2022-10-11T08:56:19.183Z,10.40
2022-10-11T08:58:56.410Z,9.77
2022-10-11T09:01:25.727Z,9.05
2022-10-11T09:03:54.206Z,9.73
2022-10-11T09:06:22.128Z,11.00
2022-10-11T09:09:08.851Z,11.02
2022-10-11T09:11:43.653Z,12.13
2022-10-11T09:14:24.047Z,11.52
2022-10-11T09:17:04.944Z,11.23
2022-10-11T09:19:59.302Z,12.40
2022-10-11T09:22:30.833Z,10.98
2022-10-11T09:25:19.013Z,14.85
2022-10-11T09:28:02.953Z,13.05
2022-10-11T09:30:32.383Z,12.80
2022-10-11T09:33:11.624Z,11.77
2022-10-11T09:35:45.174Z,11.40
2022-10-11T09:38:45.893Z,10.50
2022-10-11T09:41:23.358Z,8.60
2022-10-11T09:43:53.126Z,9.55
2022-10-11T09:46:26.523Z,9.18
2022-10-11T09:48:55.477Z,7.50
2022-10-11T09:51:28.414Z,7.47
2022-10-11T09:54:01.438Z,7.00
2022-10-11T09:56:33.948Z,7.82
2022-10-11T09:59:20.314Z,7.32
2022-10-11T10:01:49.500Z,7.22
2022-10-11T10:04:20.595Z,7.93
2022-10-11T10:06:54.202Z,7.85
2022-10-11T10:09:31.787Z,8.77
2022-10-11T10:12:13.477Z,8.20
2022-10-11T10:14:43.983Z,6.93
2022-10-11T10:17:17.511Z,7.15
2022-10-11T10:19:56.755Z,6.90
2022-10-11T10:22:51.484Z,5.80
2022-10-11T10:25:31.117Z,6.13
2022-10-11T10:28:00.688Z,5.28
2022-10-11T10:30:33.080Z,6.25
2022-10-11T10:33:08.735Z,6.93
2022-10-11T10:35:45.842Z,5.65
2022-10-11T10:38:34.065Z,7.87
2022-10-11T10:41:05.702Z,6.82
2022-10-11T10:43:40.838Z,6.88
2022-10-11T10:46:27.803Z,6.63
2022-10-11T10:49:52.040Z,6.00
2022-10-11T10:51:58.469Z,7.70
2022-10-11T10:54:51.851Z,9.10
2022-10-11T10:57:29.319Z,8.50
2022-10-11T11:00:00.237Z,9.50
2022-10-11T11:05:21.204Z,8.17
2022-10-11T11:07:59.456Z,8.05
2022-10-11T11:10:50.582Z,8.70
2022-10-11T11:13:28.639Z,10.02
2022-10-11T11:16:21.542Z,8.65
2022-10-11T11:18:52.525Z,9.30
2022-10-11T11:21:39.105Z,9.57
2022-10-11T11:24:16.657Z,9.80
2022-10-11T11:26:48.651Z,10.70
2022-10-11T11:29:21.496Z,10.00
2022-10-11T11:32:02.577Z,10.80
2022-10-11T11:34:38.020Z,12.05
2022-10-11T11:37:15.546Z,10.80
2022-10-11T11:39:46.518Z,13.05
2022-10-11T11:42:18.451Z,12.07
2022-10-11T11:44:50.915Z,12.10
2022-10-11T11:47:25.315Z,14.02
2022-10-11T11:49:59.586Z,12.05
2022-10-11T11:52:29.539Z,12.57
2022-10-11T11:55:06.656Z,11.57
2022-10-11T11:57:43.462Z,12.48
2022-10-11T12:00:30.243Z,13.45
2022-10-11T12:03:00.745Z,14.43
2022-10-11T12:07:58.506Z,12.18
2022-10-11T12:10:26.328Z,12.38
2022-10-11T12:13:13.026Z,13.02
2022-10-11T12:15:41.500Z,15.60
2022-10-11T12:18:17.245Z,15.52
2022-10-11T12:20:45.059Z,15.93
2022-10-11T12:23:38.712Z,14.75
2022-10-11T12:26:25.116Z,17.33
2022-10-11T12:29:11.466Z,15.98
2022-10-11T12:31:43.727Z,15.15
2022-10-11T12:34:18.693Z,15.75
2022-10-11T12:36:50.051Z,16.17
2022-10-11T12:39:20.801Z,14.95
2022-10-11T12:41:49.649Z,15.88
2022-10-11T12:44:20.726Z,16.15
2022-10-11T12:46:51.560Z,16.65
2022-10-11T12:51:54.980Z,15.63
2022-10-11T12:54:32.130Z,15.15
2022-10-11T12:57:12.385Z,16.45
2022-10-11T12:59:44.107Z,14.52
2022-10-11T13:02:42.645Z,15.30
2022-10-11T13:05:26.458Z,15.07
2022-10-11T13:07:56.355Z,14.65
2022-10-11T13:10:28.097Z,17.55
2022-10-11T13:12:56.516Z,15.90
2022-10-11T13:15:24.474Z,15.27
2022-10-11T13:17:54.330Z,16.83
2022-10-11T13:20:26.064Z,15.23
2022-10-11T13:22:54.600Z,14.15
2022-10-11T13:25:27.241Z,14.38
2022-10-11T13:27:57.474Z,14.07
2022-10-11T13:30:28.600Z,14.98
2022-10-11T13:33:00.012Z,13.93
2022-10-11T13:35:33.751Z,12.25
2022-10-11T13:38:01.853Z,13.00
2022-10-11T13:40:31.928Z,13.20
2022-10-11T13:45:32.867Z,13.15
2022-10-11T13:48:01.212Z,14.93
2022-10-11T13:50:32.570Z,12.88
2022-10-11T13:53:05.631Z,14.10
2022-10-11T13:55:47.679Z,12.48
2022-10-11T13:58:35.131Z,14.73
2022-10-11T14:01:04.193Z,13.43
2022-10-11T14:03:54.598Z,12.45
2022-10-11T14:06:22.552Z,12.15
2022-10-11T14:08:56.795Z,12.20
2022-10-11T14:11:40.346Z,12.75
2022-10-11T14:14:26.725Z,13.50
2022-10-11T14:16:59.013Z,13.65
2022-10-11T14:19:26.837Z,13.20
2022-10-11T14:21:54.811Z,14.05
2022-10-11T14:24:22.578Z,13.13
2022-10-11T14:26:51.407Z,13.75
2022-10-11T14:29:27.080Z,12.75
2022-10-11T14:32:01.812Z,12.48
2022-10-11T14:34:29.759Z,12.00
2022-10-11T14:36:57.476Z,11.57
2022-10-11T14:39:26.182Z,11.05
2022-10-11T14:41:54.409Z,11.15
2022-10-11T14:44:22.534Z,10.35
2022-10-11T14:46:51.875Z,10.93
2022-10-11T14:49:25.222Z,10.50
2022-10-11T14:51:53.527Z,10.38
2022-10-11T14:54:25.008Z,10.35
2022-10-11T14:56:53.422Z,10.20
2022-10-11T14:59:22.420Z,9.23
2022-10-11T15:01:51.936Z,10.02
2022-10-11T15:04:20.638Z,9.68
2022-10-11T15:06:48.435Z,9.57
2022-10-11T15:09:17.264Z,10.10
2022-10-11T15:11:45.082Z,9.23
2022-10-11T15:14:12.745Z,10.55
2022-10-11T15:16:40.931Z,10.15
2022-10-11T15:19:15.924Z,9.93
2022-10-11T15:21:43.825Z,8.75
2022-10-11T15:24:11.728Z,8.35
2022-10-11T15:26:39.578Z,9.55
2022-10-11T15:29:07.564Z,9.57
2022-10-11T15:31:35.386Z,9.45
2022-10-11T15:34:03.102Z,9.70
2022-10-11T15:36:30.917Z,8.27
2022-10-11T15:38:58.519Z,8.90
2022-10-11T15:41:26.305Z,9.88
2022-10-11T15:44:01.482Z,9.23
2022-10-11T15:46:53.006Z,10.05
2022-10-11T15:49:30.190Z,9.60
2022-10-11T15:52:24.464Z,8.95
2022-10-11T15:54:57.738Z,8.55
2022-10-11T15:57:39.588Z,9.63
2022-10-11T16:00:33.543Z,9.15
2022-10-11T16:03:32.409Z,9.60
2022-10-11T16:06:21.086Z,9.75
2022-10-11T16:11:45.502Z,10.38
2022-10-11T16:14:18.930Z,9.50
2022-10-11T16:16:49.871Z,8.80
2022-10-11T16:21:59.495Z,8.95
2022-10-11T16:24:39.832Z,9.23
2022-10-11T16:27:23.815Z,10.00
2022-10-11T16:29:55.377Z,10.35
2022-10-11T16:32:39.805Z,9.93
2022-10-11T16:35:11.343Z,10.32
2022-10-11T16:44:26.068Z,9.50
2022-10-11T16:47:32.094Z,9.77
2022-10-11T16:59:06.928Z,8.45
2022-10-11T17:01:34.885Z,9.05
2022-10-11T17:04:03.679Z,8.50
2022-10-11T17:06:34.706Z,8.25
2022-10-11T17:09:05.217Z,9.05
2022-10-11T17:11:39.110Z,7.65
2022-10-11T17:14:15.507Z,7.13
2022-10-11T17:16:43.970Z,7.63
2022-10-11T17:19:19.628Z,7.13
2022-10-11T17:27:39.226Z,6.20
2022-10-11T17:30:16.222Z,7.22
2022-10-11T17:35:36.783Z,7.35
2022-10-11T17:38:06.510Z,7.28
2022-10-11T17:43:21.988Z,7.15
2022-10-11T17:46:04.315Z,6.57
2022-10-11T17:51:21.201Z,7.05
2022-10-11T17:56:38.960Z,7.93
2022-10-11T17:59:42.215Z,8.82
2022-10-11T18:03:00.443Z,7.88
2022-10-11T18:11:26.885Z,9.43
2022-10-11T18:13:55.137Z,8.18
2022-10-11T18:16:33.167Z,9.10
2022-10-11T18:19:05.632Z,8.25
2022-10-11T18:21:37.438Z,9.57
2022-10-11T18:27:05.518Z,8.77
2022-10-11T18:29:33.340Z,8.35
2022-10-11T18:32:21.239Z,7.07
2022-10-11T18:43:39.893Z,8.38
2022-10-11T18:46:17.345Z,8.80
2022-10-11T18:58:30.116Z,8.27
2022-10-11T19:37:26.212Z,9.70
2022-10-11T19:40:14.048Z,9.88
2022-10-11T19:47:07.536Z,9.48
2022-10-11T19:55:10.103Z,10.93
2022-10-11T19:57:39.479Z,9.98
2022-10-11T20:00:19.641Z,10.23
2022-10-11T20:06:01.369Z,11.35
2022-10-11T20:08:34.165Z,10.23
2022-10-11T20:11:10.042Z,10.90
2022-10-11T20:13:41.580Z,9.52
2022-10-11T20:16:11.251Z,9.57
2022-10-11T20:18:43.353Z,9.57
2022-10-11T20:21:20.877Z,10.00
2022-10-11T20:24:07.323Z,13.02
2022-10-11T20:26:40.143Z,10.93
2022-10-11T20:31:56.312Z,10.00
2022-10-11T20:37:10.843Z,9.98
2022-10-11T20:39:45.400Z,9.85
2022-10-11T20:42:14.066Z,11.00
2022-10-11T20:44:44.205Z,10.82
2022-10-11T20:47:25.288Z,11.13
2022-10-11T20:52:22.343Z,11.18
2022-10-11T20:54:53.603Z,10.98
2022-10-11T21:00:24.947Z,11.52
2022-10-11T21:03:04.113Z,10.77
2022-10-11T21:05:39.503Z,12.13
2022-10-11T21:08:08.293Z,10.60
2022-10-11T21:10:39.654Z,9.27
2022-10-11T21:25:41.093Z,9.65
2022-10-11T21:31:31.062Z,12.02
2022-10-11T21:34:08.689Z,10.68
2022-10-11T21:36:38.927Z,9.88
2022-10-11T21:39:10.735Z,9.50
2022-10-11T21:41:39.173Z,9.30
2022-10-11T21:44:12.823Z,10.52
2022-10-11T21:49:40.045Z,10.13
2022-10-11T21:52:15.295Z,11.63
2022-10-11T21:54:43.646Z,10.43
2022-10-11T21:57:16.137Z,11.93
2022-10-11T21:59:51.150Z,10.27
2022-10-11T22:05:38.806Z,12.43
2022-10-11T22:11:07.257Z,12.73
2022-10-11T22:13:47.303Z,12.35
2022-10-11T22:16:22.029Z,11.88
2022-10-11T22:19:05.767Z,12.38
2022-10-11T22:21:41.375Z,10.55
2022-10-11T22:24:18.461Z,12.63
2022-10-11T22:26:50.095Z,11.35
2022-10-11T22:29:34.028Z,10.95
2022-10-11T22:32:14.717Z,12.98
2022-10-11T22:34:49.328Z,13.00
2022-10-11T22:37:23.650Z,11.80
2022-10-11T22:53:31.909Z,13.70
2022-10-11T22:59:02.386Z,13.25
2022-10-11T23:01:46.669Z,13.45
2022-10-11T23:04:22.502Z,14.63
2022-10-11T23:06:52.696Z,12.48
2022-10-11T23:09:22.977Z,11.67
2022-10-11T23:11:52.128Z,13.23
2022-10-11T23:14:22.090Z,12.65
2022-10-11T23:16:55.940Z,12.60
2022-10-11T23:19:24.526Z,13.05
2022-10-11T23:21:57.730Z,13.15
2022-10-11T23:24:33.539Z,13.00
2022-10-11T23:27:08.787Z,12.10
2022-10-11T23:32:40.215Z,12.48
2022-10-11T23:38:16.029Z,12.35
2022-10-11T23:43:40.222Z,12.90
2022-10-11T23:46:08.363Z,12.00
2022-10-11T23:51:37.443Z,11.23
2022-10-11T23:56:58.481Z,11.65
2022-10-11T23:59:26.534Z,11.60
